Time;durP1;ratioP1;P1;durP2;ratioP2;P2;SDS_P1;SDS_P2;PMS_P1;PMS_P2;Temp;Humidity;BMP_temperature;BMP_pressure;BME280_temperature;BME280_humidity;BME280_pressure;Samples;Min_cycle;Max_cycle;Signal;HPM_P1;HPM_P2
2021/06/12 00:00:04;;;;;;;17.63;10.90;;;;;;;18.99;69.08;96542.72;5053170;28;20052;-80
2021/06/12 00:02:30;;;;;;;17.60;10.93;;;;;;;19.02;68.28;96542.00;5052921;28;20048;-79
2021/06/12 00:04:56;;;;;;;14.30;10.20;;;;;;;19.02;67.86;96542.00;5054227;28;20049;-80
2021/06/12 00:07:21;;;;;;;15.55;11.05;;;;;;;19.01;68.15;96537.66;5053794;28;20495;-79
2021/06/12 00:09:47;;;;;;;16.00;10.82;;;;;;;18.96;68.32;96532.44;5053694;28;20120;-80
2021/06/12 00:12:13;;;;;;;13.90;10.45;;;;;;;18.92;68.08;96537.09;5053411;28;20064;-80
2021/06/12 00:14:39;;;;;;;15.95;10.68;;;;;;;18.91;67.64;96540.25;5053209;28;20048;-80
2021/06/12 00:17:07;;;;;;;12.68;10.30;;;;;;;18.88;67.18;96539.00;5052225;28;20614;-79
2021/06/12 00:19:33;;;;;;;15.98;11.35;;;;;;;18.86;67.65;96541.34;5053024;28;20045;-80
2021/06/12 00:21:59;;;;;;;16.05;10.70;;;;;;;18.81;67.73;96538.88;5053615;28;20061;-81
2021/06/12 00:24:25;;;;;;;16.88;11.25;;;;;;;18.77;67.68;96535.25;5052664;28;20041;-80
2021/06/12 00:26:51;;;;;;;15.05;11.07;;;;;;;18.77;68.06;96541.56;5053225;28;20045;-80
2021/06/12 00:29:17;;;;;;;17.30;11.18;;;;;;;18.79;67.07;96543.94;5052738;28;20045;-80
2021/06/12 00:31:43;;;;;;;14.10;11.07;;;;;;;18.74;67.39;96538.72;5039968;28;20049;-80
2021/06/12 00:34:10;;;;;;;14.70;10.15;;;;;;;18.72;67.64;96536.34;5032950;28;20038;-81
2021/06/12 00:36:36;;;;;;;12.18;10.30;;;;;;;18.70;68.01;96537.88;5035672;28;20045;-80
2021/06/12 00:39:04;;;;;;;13.00;10.52;;;;;;;18.72;67.87;96546.59;5034842;28;20045;-80
2021/06/12 00:41:30;;;;;;;12.77;9.90;;;;;;;18.73;67.33;96537.13;5032887;28;20099;-80
2021/06/12 00:43:56;;;;;;;14.02;10.48;;;;;;;18.71;67.02;96536.72;5032905;28;20049;-79
2021/06/12 00:46:22;;;;;;;12.23;10.07;;;;;;;18.69;67.56;96536.31;5031659;28;20551;-80
2021/06/12 00:48:48;;;;;;;14.40;9.85;;;;;;;18.65;67.34;96535.41;5031662;28;20040;-80
2021/06/12 00:51:16;;;;;;;14.02;9.93;;;;;;;18.61;66.99;96537.28;5031737;28;20045;-80
2021/06/12 00:53:42;;;;;;;13.75;9.15;;;;;;;18.62;66.83;96536.13;5032214;28;20046;-79
2021/06/12 00:56:10;;;;;;;12.43;9.60;;;;;;;18.60;66.18;96532.94;5038756;28;20680;-79
2021/06/12 00:58:42;;;;;;;13.85;9.88;;;;;;;18.60;66.49;96532.94;5051829;28;20045;-80
2021/06/12 01:01:09;;;;;;;13.05;9.48;;;;;;;18.59;66.76;96526.63;5042047;28;20041;-80
2021/06/12 01:03:35;;;;;;;13.98;9.75;;;;;;;18.60;66.26;96536.50;5031993;28;20099;-79
2021/06/12 01:06:01;;;;;;;13.38;9.50;;;;;;;18.58;66.38;96532.50;5031567;28;20046;-74
2021/06/12 01:08:29;;;;;;;11.63;8.48;;;;;;;18.56;66.54;96532.06;5032280;28;20046;-79
2021/06/12 01:10:55;;;;;;;14.05;9.25;;;;;;;18.55;66.04;96536.00;5032097;28;20415;-81
2021/06/12 01:13:30;;;;;;;11.85;8.93;;;;;;;18.58;65.58;96526.97;5031768;28;20053;-79
2021/06/12 01:16:02;;;;;;;12.80;8.80;;;;;;;18.59;65.73;96531.34;5032123;28;20120;-79
2021/06/12 01:18:31;;;;;;;11.77;8.75;;;;;;;18.60;66.18;96527.44;5032124;28;20041;-80
2021/06/12 01:21:15;;;;;;;10.68;8.65;;;;;;;18.60;66.44;96527.44;5033045;28;20088;-80
2021/06/12 01:24:13;;;;;;;11.52;8.52;;;;;;;18.64;65.84;96528.28;5032902;28;20041;-79
2021/06/12 01:27:02;;;;;;;11.55;8.02;;;;;;;18.64;65.07;96533.81;5044495;28;20052;-80
2021/06/12 01:29:38;;;;;;;12.13;8.13;;;;;;;18.65;65.27;96527.13;5052505;28;20052;-78
2021/06/12 01:32:08;;;;;;;9.85;7.72;;;;;;;18.63;64.71;96523.91;5034896;28;20041;-79
2021/06/12 01:34:36;;;;;;;11.98;8.23;;;;;;;18.61;64.60;96523.50;5031972;28;20045;-79
2021/06/12 01:37:06;;;;;;;12.32;8.30;;;;;;;18.49;64.42;96530.78;5031968;28;20041;-79
2021/06/12 01:39:33;;;;;;;13.18;7.93;;;;;;;18.45;64.90;96521.63;5032577;28;20068;-79
2021/06/12 01:42:02;;;;;;;11.75;7.80;;;;;;;18.38;64.99;96524.28;5031962;28;20044;-79
2021/06/12 01:44:31;;;;;;;12.40;7.72;;;;;;;18.37;65.17;96516.34;5031441;28;20092;-81
2021/06/12 01:46:58;;;;;;;10.38;7.43;;;;;;;18.36;64.95;96518.31;5031448;28;20496;-81
2021/06/12 01:49:26;;;;;;;10.45;7.15;;;;;;;18.34;65.06;96515.13;5031136;28;20053;-83
2021/06/12 01:51:53;;;;;;;10.07;7.65;;;;;;;18.31;65.16;96517.81;5031225;28;20428;-81
2021/06/12 01:54:20;;;;;;;10.65;7.72;;;;;;;18.32;65.69;96511.91;5030550;28;20049;-81
2021/06/12 01:56:48;;;;;;;8.60;6.97;;;;;;;18.31;66.15;96510.31;5043728;28;20045;-81
2021/06/12 01:59:14;;;;;;;8.90;6.78;;;;;;;18.35;66.47;96510.41;5050796;28;20048;-79
2021/06/12 02:01:42;;;;;;;15.45;7.40;;;;;;;18.36;65.68;96504.53;5040299;28;20037;-78
2021/06/12 02:04:09;;;;;;;10.20;6.90;;;;;;;18.37;65.50;96514.38;5035270;28;20068;-79
2021/06/12 02:06:37;;;;;;;11.98;7.10;;;;;;;18.35;65.79;96511.19;5035083;28;20052;-79
2021/06/12 02:09:05;;;;;;;8.75;6.45;;;;;;;18.34;65.35;96504.09;5034545;28;20033;-79
2021/06/12 02:11:32;;;;;;;11.20;6.50;;;;;;;18.28;65.34;96507.53;5034802;28;20485;-80
2021/06/12 02:13:58;;;;;;;10.35;7.65;;;;;;;18.24;65.71;96504.69;5035597;28;20053;-80
2021/06/12 02:16:26;;;;;;;9.55;7.13;;;;;;;18.21;65.46;96506.19;5042910;28;20099;-79
2021/06/12 02:18:54;;;;;;;8.63;6.80;;;;;;;18.18;65.40;96503.38;5038758;28;20042;-79
2021/06/12 02:21:22;;;;;;;9.05;6.68;;;;;;;18.12;65.67;96513.13;5035024;28;20061;-79
2021/06/12 02:23:51;;;;;;;8.77;7.15;;;;;;;18.15;66.33;96506.84;5034679;28;20037;-79
2021/06/12 02:26:18;;;;;;;12.50;7.13;;;;;;;18.12;66.15;96507.59;5042692;28;20045;-79
2021/06/12 02:28:45;;;;;;;10.25;7.20;;;;;;;18.12;66.89;96507.59;5046162;28;20095;-79
2021/06/12 02:31:16;;;;;;;11.43;7.50;;;;;;;18.12;67.29;96507.59;5033770;28;20045;-79
2021/06/12 02:33:45;;;;;;;11.35;7.65;;;;;;;18.10;67.03;96496.13;5034819;28;20034;-79
2021/06/12 02:36:11;;;;;;;9.13;6.53;;;;;;;18.10;67.31;96504.41;5034178;28;20048;-80
2021/06/12 02:38:37;;;;;;;11.32;7.43;;;;;;;18.08;66.57;96501.22;5034532;28;20404;-79
2021/06/12 02:41:05;;;;;;;9.75;6.75;;;;;;;18.09;66.29;96505.56;5033924;28;20053;-79
2021/06/12 02:43:32;;;;;;;9.18;6.75;;;;;;;18.07;66.36;96505.13;5034157;28;20037;-79
2021/06/12 02:45:58;;;;;;;9.27;7.32;;;;;;;18.04;66.60;96500.34;5034129;28;20381;-79
2021/06/12 02:48:28;;;;;;;9.43;6.80;;;;;;;17.99;66.96;96499.47;5033761;28;20046;-78
2021/06/12 02:50:57;;;;;;;9.23;6.65;;;;;;;17.99;67.20;96509.69;5034375;28;20045;-81
2021/06/12 02:53:29;;;;;;;10.70;6.45;;;;;;;18.00;67.41;96501.06;5033907;28;20051;-80
2021/06/12 02:55:59;;;;;;;8.98;6.40;;;;;;;18.03;67.17;96509.78;5034337;28;20052;-80
2021/06/12 02:58:27;;;;;;;10.13;6.90;;;;;;;18.02;67.01;96516.44;5035335;28;20515;-79
2021/06/12 03:00:54;;;;;;;10.10;6.78;;;;;;;18.01;67.09;96512.91;5034348;28;20092;-79
2021/06/12 03:03:21;;;;;;;10.82;7.50;;;;;;;17.99;67.28;96516.00;5033752;28;20385;-79
2021/06/12 03:05:50;;;;;;;10.90;7.80;;;;;;;17.98;67.74;96519.91;5034065;28;20045;-79
2021/06/12 03:08:18;;;;;;;9.52;7.25;;;;;;;17.95;67.76;96517.06;5033833;28;20111;-79
2021/06/12 03:10:46;;;;;;;11.73;7.10;;;;;;;17.92;68.16;96515.84;5034325;28;20060;-82
2021/06/12 03:13:17;;;;;;;8.93;6.50;;;;;;;17.91;68.16;96513.47;5033694;28;20049;-81
2021/06/12 03:15:47;;;;;;;8.52;7.05;;;;;;;17.90;68.02;96517.34;5034659;28;20038;-81
2021/06/12 03:18:14;;;;;;;10.00;6.68;;;;;;;17.91;67.85;96518.97;5033670;28;20041;-81
2021/06/12 03:20:41;;;;;;;11.35;7.25;;;;;;;17.89;68.11;96521.28;5034246;28;20041;-81
2021/06/12 03:23:08;;;;;;;10.20;6.72;;;;;;;17.89;68.33;96524.03;5033739;28;20045;-81
2021/06/12 03:25:36;;;;;;;8.65;6.65;;;;;;;17.89;67.82;96524.81;5036880;28;20052;-81
2021/06/12 03:28:03;;;;;;;9.40;7.15;;;;;;;17.88;67.67;96527.94;5053593;28;20049;-80
2021/06/12 03:30:29;;;;;;;10.70;7.18;;;;;;;17.86;68.15;96533.03;5036296;28;20095;-81
2021/06/12 03:32:57;;;;;;;8.80;6.60;;;;;;;17.83;68.40;96529.03;5034060;28;20057;-82
2021/06/12 03:35:24;;;;;;;9.13;7.10;;;;;;;17.80;68.38;96535.28;5033406;28;20065;-81
2021/06/12 03:37:50;;;;;;;8.52;6.20;;;;;;;17.81;68.37;96531.34;5034078;28;20104;-81
2021/06/12 03:40:18;;;;;;;10.82;7.25;;;;;;;17.82;68.12;96538.47;5033450;28;20042;-81
2021/06/12 03:42:45;;;;;;;8.50;6.78;;;;;;;17.78;68.48;96532.06;5033807;28;20045;-82
2021/06/12 03:45:13;;;;;;;9.70;6.95;;;;;;;17.81;67.98;96542.38;5033502;28;20052;-81
2021/06/12 03:47:41;;;;;;;9.35;7.05;;;;;;;17.78;67.95;96545.84;5033613;28;20049;-82
2021/06/12 03:50:12;;;;;;;9.75;7.07;;;;;;;17.74;68.38;96539.44;5033092;28;20497;-80
2021/06/12 03:52:39;;;;;;;9.77;7.05;;;;;;;17.72;68.79;96548.09;5033019;28;20057;-79
2021/06/12 03:55:07;;;;;;;10.60;6.70;;;;;;;17.72;68.76;96539.81;5032539;28;20041;-80
2021/06/12 03:57:35;;;;;;;10.40;7.38;;;;;;;17.72;69.06;96539.00;5032747;28;20052;-81
2021/06/12 04:00:04;;;;;;;9.65;7.28;;;;;;;17.68;68.84;96532.59;5034252;28;20048;-76
2021/06/12 04:02:30;;;;;;;9.90;6.93;;;;;;;17.71;68.24;96537.41;5034410;28;20041;-81
2021/06/12 04:04:57;;;;;;;8.68;7.00;;;;;;;17.71;67.33;96540.16;5052859;28;20052;-79
2021/06/12 04:07:25;;;;;;;9.90;7.15;;;;;;;17.73;67.31;96546.13;5052169;28;20056;-81
2021/06/12 04:09:51;;;;;;;8.85;6.72;;;;;;;17.73;66.98;96540.63;5050647;28;20049;-81
2021/06/12 04:12:17;;;;;;;8.23;6.65;;;;;;;17.72;67.52;96544.50;5052122;28;20065;-81
2021/06/12 04:14:43;;;;;;;11.75;6.75;;;;;;;17.73;68.29;96540.63;5052773;28;20119;-81
2021/06/12 04:17:09;;;;;;;8.60;6.85;;;;;;;17.75;67.77;96538.31;5052200;28;20041;-80
2021/06/12 04:19:38;;;;;;;9.50;6.53;;;;;;;17.74;68.23;96537.50;5052544;28;20511;-81
2021/06/12 04:22:04;;;;;;;12.02;6.53;;;;;;;17.77;67.50;96533.22;5052125;28;20040;-81
2021/06/12 04:24:31;;;;;;;9.95;6.28;;;;;;;17.77;67.77;96530.47;5051722;28;20052;-80
2021/06/12 04:26:57;;;;;;;9.35;7.13;;;;;;;17.79;68.28;96532.88;5052160;28;20049;-81
2021/06/12 04:29:23;;;;;;;7.47;6.28;;;;;;;17.81;67.49;96530.56;5043438;28;20145;-81
2021/06/12 04:31:49;;;;;;;9.93;6.70;;;;;;;17.82;66.78;96532.94;5032215;28;20128;-81
2021/06/12 04:34:15;;;;;;;8.52;6.68;;;;;;;17.81;66.09;96536.88;5031670;28;20079;-81
2021/06/12 04:36:41;;;;;;;11.32;6.13;;;;;;;17.80;66.18;96539.97;5032222;28;20065;-81
2021/06/12 04:39:07;;;;;;;9.60;6.47;;;;;;;17.71;66.32;96549.22;5031619;28;20045;-80
2021/06/12 04:41:34;;;;;;;7.47;6.25;;;;;;;17.61;66.46;96546.22;5032169;28;20133;-81
2021/06/12 04:44:00;;;;;;;10.63;6.82;;;;;;;17.53;67.02;96547.19;5031812;28;20045;-81
2021/06/12 04:46:26;;;;;;;7.97;6.13;;;;;;;17.44;67.27;96545.47;5032227;28;20041;-81
2021/06/12 04:48:52;;;;;;;11.52;7.15;;;;;;;17.39;67.67;96545.72;5032072;28;20049;-81
2021/06/12 04:51:18;;;;;;;7.82;6.28;;;;;;;17.38;67.75;96541.38;5031491;28;20154;-81
2021/06/12 04:53:44;;;;;;;10.05;7.05;;;;;;;17.42;68.49;96545.00;5030269;28;20415;-81
2021/06/12 04:56:10;;;;;;;10.45;6.53;;;;;;;17.42;68.40;96539.50;5038202;28;20037;-81
2021/06/12 04:58:38;;;;;;;12.10;6.93;;;;;;;17.41;68.72;96543.41;5047231;28;20464;-81
2021/06/12 05:01:04;;;;;;;10.52;6.97;;;;;;;17.43;68.89;96538.31;5030565;28;20049;-80
2021/06/12 05:03:30;;;;;;;9.80;6.32;;;;;;;17.50;68.95;96547.94;5041190;28;20061;-79
2021/06/12 05:05:56;;;;;;;8.75;6.63;;;;;;;17.58;68.29;96544.16;5051155;28;20095;-79
2021/06/12 05:08:22;;;;;;;10.32;6.28;;;;;;;17.63;68.29;96546.66;5050695;28;20049;-79
2021/06/12 05:10:48;;;;;;;9.48;6.82;;;;;;;17.68;68.11;96549.91;5051259;28;20132;-81
2021/06/12 05:13:14;;;;;;;9.82;7.28;;;;;;;17.68;67.97;96549.91;5050598;28;20455;-80
2021/06/12 05:15:42;;;;;;;10.13;6.88;;;;;;;17.71;68.32;96540.94;5051339;28;20045;-81
2021/06/12 05:18:08;;;;;;;10.70;6.55;;;;;;;17.75;67.84;96549.34;5050715;28;20041;-79
2021/06/12 05:20:36;;;;;;;13.27;6.95;;;;;;;17.82;68.44;96549.47;5051171;28;20048;-76
2021/06/12 05:23:02;;;;;;;8.57;6.50;;;;;;;17.88;67.85;96548.03;5049642;28;20041;-76
2021/06/12 05:25:29;;;;;;;8.88;6.57;;;;;;;17.94;67.78;96545.78;5050149;28;20068;-76
2021/06/12 05:27:55;;;;;;;9.60;6.85;;;;;;;17.97;67.77;96548.63;5049942;28;20052;-76
2021/06/12 05:30:22;;;;;;;9.27;6.80;;;;;;;18.05;67.51;96548.78;5031396;28;20518;-76
2021/06/12 05:32:49;;;;;;;9.73;7.15;;;;;;;18.09;67.42;96552.41;5030185;28;20045;-75
2021/06/12 05:35:15;;;;;;;11.38;6.97;;;;;;;18.14;67.04;96544.66;5029449;28;20534;-75
2021/06/12 05:37:41;;;;;;;10.68;7.43;;;;;;;18.17;67.32;96548.66;5029284;28;20064;-75
2021/06/12 05:40:10;;;;;;;8.45;6.40;;;;;;;18.22;67.71;96551.13;5029790;28;20037;-75
2021/06/12 05:42:36;;;;;;;8.95;6.93;;;;;;;18.31;66.71;96548.91;5029962;28;20088;-75
2021/06/12 05:45:08;;;;;;;9.07;6.78;;;;;;;18.37;67.67;96550.22;5029611;28;20441;-75
2021/06/12 05:47:34;;;;;;;12.23;7.13;;;;;;;18.44;66.32;96558.66;5030166;28;20057;-75
2021/06/12 05:50:02;;;;;;;9.50;7.50;;;;;;;18.54;66.58;96559.22;5027959;28;20061;-78
2021/06/12 05:52:28;;;;;;;8.40;6.95;;;;;;;18.61;65.32;96557.38;5043763;28;111835;-76
2021/06/12 05:54:54;;;;;;;8.15;6.93;;;;;;;18.69;66.11;96563.88;5049941;28;20041;-75
2021/06/12 05:57:19;;;;;;;8.20;7.10;;;;;;;18.81;66.17;96560.16;5034212;28;20068;-75
2021/06/12 05:59:45;;;;;;;10.07;8.20;;;;;;;18.89;64.31;96562.66;5029216;28;20145;-76
2021/06/12 06:02:11;;;;;;;12.52;7.63;;;;;;;18.92;63.83;96556.41;5026945;28;20045;-75
2021/06/12 06:04:37;;;;;;;10.40;7.63;;;;;;;18.95;64.60;96561.22;5027306;28;20131;-76
2021/06/12 06:07:05;;;;;;;12.18;8.20;;;;;;;18.97;64.57;96558.88;5026935;28;20045;-77
2021/06/12 06:09:31;;;;;;;12.55;8.07;;;;;;;19.00;64.23;96557.31;5027456;28;20519;-75
2021/06/12 06:11:57;;;;;;;10.07;7.63;;;;;;;19.08;65.06;96558.25;5027546;28;20046;-76
2021/06/12 06:14:23;;;;;;;10.57;7.68;;;;;;;19.11;64.34;96557.53;5027101;28;20038;-76
2021/06/12 06:16:49;;;;;;;14.07;8.48;;;;;;;19.18;64.01;96546.59;5027409;28;20051;-75
2021/06/12 06:19:15;;;;;;;11.40;7.95;;;;;;;19.25;63.97;96553.03;5027225;28;20757;-78
2021/06/12 06:21:41;;;;;;;10.82;7.85;;;;;;;19.36;65.35;96553.19;5027490;28;20041;-75
2021/06/12 06:24:10;;;;;;;12.00;8.32;;;;;;;19.46;64.97;96544.28;5026076;28;20053;-76
2021/06/12 06:26:36;;;;;;;9.63;7.82;;;;;;;19.55;63.07;96539.31;5047239;28;20045;-77
2021/06/12 06:29:02;;;;;;;11.05;7.85;;;;;;;19.64;62.38;96541.06;5039731;28;20045;-76
2021/06/12 06:31:28;;;;;;;12.35;7.70;;;;;;;19.69;62.36;96543.50;5045747;28;20057;-77
2021/06/12 06:33:54;;;;;;;10.68;8.07;;;;;;;19.76;62.95;96546.34;5033925;28;20049;-76
2021/06/12 06:36:21;;;;;;;10.57;7.93;;;;;;;19.81;62.51;96546.03;5026941;28;20049;-75
2021/06/12 06:38:47;;;;;;;10.45;7.50;;;;;;;19.92;62.11;96538.69;5026528;28;20495;-75
2021/06/12 06:41:14;;;;;;;13.20;7.93;;;;;;;20.05;63.17;96545.59;5046747;28;20144;-76
2021/06/12 06:43:40;;;;;;;9.95;7.78;;;;;;;20.16;61.94;96539.38;5047213;28;20053;-76
2021/06/12 06:46:06;;;;;;;10.15;7.85;;;;;;;20.25;62.54;96542.66;5046556;28;20045;-76
2021/06/12 06:48:32;;;;;;;9.35;7.72;;;;;;;20.38;61.62;96546.78;5049421;28;20048;-76
2021/06/12 06:50:58;;;;;;;9.25;7.32;;;;;;;20.48;62.56;96546.13;5050918;28;20045;-76
2021/06/12 06:53:24;;;;;;;10.32;8.25;;;;;;;20.61;61.69;96549.41;5049912;28;20072;-76
2021/06/12 06:55:50;;;;;;;12.70;8.07;;;;;;;20.76;60.29;96544.84;5050644;28;20061;-76
2021/06/12 06:58:17;;;;;;;13.75;7.65;;;;;;;20.81;59.88;96547.25;5049841;28;20052;-76
2021/06/12 07:00:43;;;;;;;9.40;7.43;;;;;;;20.87;60.64;96540.22;5031327;28;20071;-76
2021/06/12 07:03:09;;;;;;;8.75;7.25;;;;;;;21.01;60.27;96540.34;5030000;28;20419;-76
2021/06/12 07:05:35;;;;;;;10.57;7.68;;;;;;;21.10;60.84;96551.91;5030511;28;20728;-78
2021/06/12 07:08:01;;;;;;;9.18;6.90;;;;;;;21.22;60.25;96552.78;5030191;28;20408;-75
2021/06/12 07:10:27;;;;;;;11.82;7.45;;;;;;;21.29;57.94;96555.63;5030243;28;20476;-76
2021/06/12 07:12:58;;;;;;;10.52;7.60;;;;;;;21.34;59.46;96553.31;5030363;28;20052;-76
2021/06/12 07:15:26;;;;;;;8.50;7.22;;;;;;;21.41;59.60;96541.53;5029778;28;20049;-76
2021/06/12 07:17:53;;;;;;;9.57;7.07;;;;;;;21.54;58.90;96545.56;5029965;28;21137;-75
2021/06/12 07:20:19;;;;;;;8.32;6.63;;;;;;;21.67;59.76;96548.84;5029923;28;20530;-76
2021/06/12 07:22:45;;;;;;;8.07;7.20;;;;;;;21.79;59.34;96544.94;5030285;28;20128;-76
2021/06/12 07:25:12;;;;;;;7.15;6.45;;;;;;;21.89;58.16;96550.56;5029502;28;20492;-76
2021/06/12 07:27:38;;;;;;;8.25;6.60;;;;;;;21.99;56.30;96549.03;5049605;28;20106;-77
2021/06/12 07:30:05;;;;;;;9.38;6.90;;;;;;;22.05;56.28;96541.94;5033417;28;20053;-76
2021/06/12 07:32:32;;;;;;;9.70;7.25;;;;;;;22.09;55.08;96539.97;5029795;28;20071;-77
2021/06/12 07:34:58;;;;;;;9.93;6.60;;;;;;;22.13;56.76;96540.00;5029931;28;20041;-75
2021/06/12 07:37:24;;;;;;;8.90;6.97;;;;;;;22.20;56.56;96547.59;5029167;28;20056;-76
2021/06/12 07:39:51;;;;;;;7.95;6.78;;;;;;;22.27;54.76;96542.06;5029800;28;20053;-76
2021/06/12 07:42:17;;;;;;;9.77;6.88;;;;;;;22.34;54.72;96533.75;5029110;28;20416;-77
2021/06/12 07:44:43;;;;;;;8.25;6.68;;;;;;;22.39;55.43;96534.19;5029633;28;20050;-78
2021/06/12 07:47:10;;;;;;;7.75;6.50;;;;;;;22.45;54.74;96536.56;5029028;28;20050;-76
2021/06/12 07:49:38;;;;;;;8.68;6.78;;;;;;;22.48;56.34;96531.03;5028682;28;20045;-77
2021/06/12 07:52:05;;;;;;;10.98;5.80;;;;;;;22.59;56.21;96540.19;5029483;28;20049;-77
2021/06/12 07:54:31;;;;;;;7.95;6.45;;;;;;;22.68;57.20;96534.28;5029098;28;20492;-75
2021/06/12 07:56:56;;;;;;;11.02;6.30;;;;;;;22.72;57.18;96539.84;5029137;28;20080;-77
2021/06/12 07:59:22;;;;;;;8.52;6.22;;;;;;;22.85;55.95;96538.28;5029470;28;20069;-77
2021/06/12 08:01:48;;;;;;;6.95;6.10;;;;;;;22.98;52.84;96547.06;5029318;28;20088;-76
2021/06/12 08:04:14;;;;;;;8.57;6.40;;;;;;;23.09;53.33;96540.34;5039869;28;20347;-76
2021/06/12 08:06:42;;;;;;;9.00;6.32;;;;;;;23.13;52.07;96543.91;5030746;28;20520;-77
2021/06/12 08:09:08;;;;;;;9.40;6.07;;;;;;;23.20;53.16;96542.34;5048420;28;20423;-77
2021/06/12 08:11:34;;;;;;;8.07;6.40;;;;;;;23.23;55.50;96544.28;5049074;28;20045;-76
2021/06/12 08:14:00;;;;;;;7.80;6.47;;;;;;;23.45;50.36;96543.13;5048363;28;20419;-76
2021/06/12 08:16:26;;;;;;;8.15;5.95;;;;;;;24.34;52.50;96539.41;5048707;28;20068;-77
2021/06/12 08:18:52;;;;;;;6.63;5.45;;;;;;;25.22;49.52;96535.38;5049025;28;20055;-77
2021/06/12 08:21:19;;;;;;;10.38;6.00;;;;;;;25.58;46.04;96532.31;5048347;28;20507;-77
2021/06/12 08:23:46;;;;;;;9.93;5.78;;;;;;;26.35;46.54;96531.13;5048658;28;20049;-76
2021/06/12 08:26:12;;;;;;;6.10;5.25;;;;;;;26.88;45.56;96524.84;5048249;28;20045;-76
2021/06/12 08:28:38;;;;;;;6.30;5.53;;;;;;;27.00;42.34;96524.28;5044960;28;20049;-77
2021/06/12 08:31:06;;;;;;;6.82;5.45;;;;;;;26.76;42.44;96529.00;5028798;28;20045;-76
2021/06/12 08:33:32;;;;;;;9.35;6.15;;;;;;;27.02;44.03;96526.66;5028839;28;20049;-75
2021/06/12 08:35:58;;;;;;;10.93;6.90;;;;;;;27.26;42.74;96533.91;5028517;28;20045;-76
2021/06/12 08:38:24;;;;;;;9.13;6.57;;;;;;;27.48;44.49;96534.34;5028031;28;20111;-76
2021/06/12 08:40:52;;;;;;;7.43;6.25;;;;;;;28.00;39.60;96533.06;5028762;28;20045;-76
2021/06/12 08:43:22;;;;;;;8.52;5.05;;;;;;;28.24;40.02;96534.63;5028208;28;20752;-77
2021/06/12 08:45:48;;;;;;;7.05;5.45;;;;;;;28.53;38.46;96522.84;5028638;28;20049;-75
2021/06/12 08:48:16;;;;;;;10.45;5.97;;;;;;;28.64;41.31;96528.22;5027896;28;20054;-74
2021/06/12 08:50:43;;;;;;;7.57;5.32;;;;;;;28.65;41.05;96518.59;5028611;28;20127;-75
2021/06/12 08:53:09;;;;;;;7.25;5.60;;;;;;;28.64;38.06;96517.81;5027553;28;20049;-75
2021/06/12 08:55:35;;;;;;;9.45;5.28;;;;;;;28.48;41.11;96521.34;5031023;28;20049;-76
2021/06/12 08:58:02;;;;;;;7.40;5.20;;;;;;;28.06;39.36;96520.16;5051978;28;20072;-84
2021/06/12 09:00:28;;;;;;;6.63;5.60;;;;;;;27.60;38.27;96524.56;5040417;28;20048;-83
2021/06/12 09:03:14;;;;;;;9.20;5.68;;;;;;;27.01;41.11;96528.66;5036521;28;20033;-83
2021/06/12 09:05:45;;;;;;;10.57;5.93;;;;;;;26.90;46.93;96530.81;5038958;28;20052;-81
2021/06/12 09:08:13;;;;;;;9.57;5.57;;;;;;;26.99;44.56;96525.50;5053979;28;20147;-83
2021/06/12 09:10:56;;;;;;;9.20;5.28;;;;;;;27.03;44.94;96519.84;5057994;28;20067;-83
2021/06/12 09:13:42;;;;;;;9.43;5.50;;;;;;;26.88;42.88;96529.66;5059390;28;20125;-83
2021/06/12 09:16:20;;;;;;;8.65;5.50;;;;;;;26.59;43.33;96532.06;5058693;28;20037;-83
2021/06/12 09:18:47;;;;;;;7.07;6.03;;;;;;;26.39;42.44;96521.50;5057843;28;20040;-85
2021/06/12 09:21:23;;;;;;;7.32;5.93;;;;;;;26.51;43.39;96525.75;5056205;28;20421;-83
2021/06/12 09:23:49;;;;;;;10.52;6.60;;;;;;;26.55;46.85;96518.13;5054854;28;20049;-82
2021/06/12 09:26:16;;;;;;;10.00;7.05;;;;;;;26.55;47.74;96520.91;5053644;28;20056;-81
2021/06/12 09:28:48;;;;;;;10.93;7.28;;;;;;;26.44;45.22;96523.06;5053086;28;20044;-82
2021/06/12 09:31:23;;;;;;;8.67;6.13;;;;;;;26.35;45.29;96525.53;5037152;28;20069;-82
2021/06/12 09:33:52;;;;;;;7.45;6.30;;;;;;;26.46;43.16;96523.44;5037444;28;20038;-83
2021/06/12 09:36:18;;;;;;;11.07;7.13;;;;;;;26.53;44.28;96526.94;5036115;28;20049;-83
2021/06/12 09:38:44;;;;;;;9.80;6.32;;;;;;;26.68;47.07;96535.91;5036910;28;20110;-85
2021/06/12 09:41:28;;;;;;;7.72;6.40;;;;;;;26.90;45.69;96521.66;5038152;28;20045;-83
2021/06/12 09:43:56;;;;;;;7.95;6.68;;;;;;;27.10;47.90;96530.19;5037672;28;20045;-83
2021/06/12 09:46:37;;;;;;;9.18;6.72;;;;;;;27.14;44.77;96528.88;5036484;28;20053;-84
2021/06/12 09:49:05;;;;;;;8.57;7.00;;;;;;;27.02;43.89;96526.66;5038035;28;20053;-79
2021/06/12 09:51:31;;;;;;;6.70;6.00;;;;;;;26.98;43.46;96526.69;5039529;28;20548;-84
2021/06/12 09:53:59;;;;;;;9.32;6.65;;;;;;;26.88;45.48;96535.22;5037752;28;20056;-82
2021/06/12 09:56:26;;;;;;;9.57;6.55;;;;;;;26.98;44.88;96521.09;5037320;28;20042;-81
2021/06/12 09:58:53;;;;;;;7.30;5.65;;;;;;;27.03;41.45;96519.84;5042972;28;20064;-83
2021/06/12 10:01:23;;;;;;;6.90;5.65;;;;;;;26.79;43.03;96511.41;5041289;28;20046;-83
2021/06/12 10:04:07;;;;;;;8.43;6.63;;;;;;;26.71;46.37;96523.09;5052738;28;20046;-81
2021/06/12 10:06:33;;;;;;;6.30;5.70;;;;;;;26.82;43.84;96514.56;5040124;28;20041;-83
2021/06/12 10:09:03;;;;;;;5.63;4.95;;;;;;;26.90;42.59;96513.28;5041607;28;20044;-82
2021/06/12 10:11:31;;;;;;;8.57;6.43;;;;;;;26.98;44.27;96517.53;5042450;28;20068;-83
2021/06/12 10:13:58;;;;;;;8.38;6.53;;;;;;;27.10;46.01;96516.22;5040857;28;20049;-83
2021/06/12 10:16:27;;;;;;;7.85;5.85;;;;;;;27.13;40.99;96524.50;5038368;28;20049;-82
2021/06/12 10:18:54;;;;;;;8.90;5.95;;;;;;;27.19;44.53;96517.22;5040356;28;20045;-82
2021/06/12 10:21:20;;;;;;;7.38;5.70;;;;;;;27.21;41.20;96520.41;5040552;28;20061;-81
2021/06/12 10:23:47;;;;;;;7.78;5.38;;;;;;;27.15;43.33;96522.09;5039330;28;20049;-82
2021/06/12 10:26:15;;;;;;;7.00;6.30;;;;;;;27.11;43.33;96526.94;5048804;28;20045;-85
2021/06/12 10:28:41;;;;;;;7.03;5.57;;;;;;;27.02;40.79;96518.28;5062570;28;20045;-83
2021/06/12 10:31:11;;;;;;;7.03;5.80;;;;;;;27.01;41.17;96519.50;5064676;28;20049;-80
2021/06/12 10:33:42;;;;;;;7.35;5.93;;;;;;;27.08;42.67;96516.59;5056105;28;20076;-83
2021/06/12 10:36:14;;;;;;;9.15;6.13;;;;;;;27.13;43.16;96513.34;5046226;28;20045;-83
2021/06/12 10:38:41;;;;;;;6.20;4.80;;;;;;;27.14;43.13;96512.13;5045051;28;20041;-84
2021/06/12 10:41:19;;;;;;;9.82;6.65;;;;;;;27.22;40.39;96504.44;5049279;23;20045;-84
2021/06/12 10:43:47;;;;;;;6.57;4.68;;;;;;;27.26;39.80;96505.94;5026453;28;20050;-84
2021/06/12 10:46:18;;;;;;;8.15;5.00;;;;;;;27.11;42.37;96507.38;5026213;28;20056;-84
2021/06/12 10:48:49;;;;;;;6.50;4.40;;;;;;;27.14;40.98;96509.31;5027316;28;20077;-81
2021/06/12 10:51:45;;;;;;;10.07;5.45;;;;;;;27.17;39.83;96505.69;5029209;28;20050;-83
2021/06/12 10:54:20;;;;;;;9.00;6.50;;;;;;;27.02;38.76;96507.09;5028170;28;20105;-83
2021/06/12 10:56:48;;;;;;;6.85;5.22;;;;;;;27.03;37.16;96498.28;5028155;28;20045;-84
2021/06/12 10:59:55;;;;;;;8.00;5.63;;;;;;;27.00;40.16;96499.13;5028319;28;20042;-81
2021/06/12 11:02:25;;;;;;;5.20;4.30;;;;;;;26.94;40.86;96488.88;5018993;28;22247;-84
2021/06/12 11:04:57;;;;;;;5.85;4.05;;;;;;;26.73;39.91;96495.56;5023693;28;20559;-82
2021/06/12 11:07:28;;;;;;;7.70;4.20;;;;;;;26.69;44.04;96501.19;5026748;28;20049;-85
2021/06/12 11:10:22;;;;;;;4.47;3.72;;;;;;;26.84;39.72;96489.81;5027367;28;20053;-84
2021/06/12 11:12:51;;;;;;;4.88;3.95;;;;;;;26.94;40.12;96492.44;5020153;28;20037;-83
2021/06/12 11:15:35;;;;;;;9.25;4.70;;;;;;;27.03;40.84;96491.91;5029350;28;20070;-82
2021/06/12 11:18:18;;;;;;;9.82;4.55;;;;;;;27.04;41.05;96483.13;5031652;28;20037;-84
2021/06/12 11:20:47;;;;;;;6.10;4.78;;;;;;;27.11;40.57;96475.84;5028643;28;20072;-84
2021/06/12 11:23:16;;;;;;;8.02;5.00;;;;;;;27.15;43.94;96471.78;5025764;28;20050;-84
2021/06/12 11:25:56;;;;;;;10.18;5.40;;;;;;;27.22;40.29;96476.47;5020836;28;20045;-84
2021/06/12 11:28:28;;;;;;;5.95;4.53;;;;;;;27.08;41.55;96471.88;5029284;28;20061;-80
2021/06/12 11:31:29;;;;;;;5.40;4.80;;;;;;;26.91;43.41;96473.72;5026360;28;20050;-82
2021/06/12 11:34:22;;;;;;;8.63;5.13;;;;;;;26.72;45.14;96472.41;5029345;28;20054;-83